createdAt,value
2023-03-18T00:02:28.958Z,9.50
2023-03-18T00:04:57.044Z,9.53
2023-03-18T00:07:24.952Z,7.70
2023-03-18T00:09:53.503Z,5.37
2023-03-18T00:12:22.240Z,7.40
2023-03-18T00:14:50.618Z,3.10
2023-03-18T00:17:19.488Z,4.17
2023-03-18T00:19:50.604Z,9.80
2023-03-18T00:22:19.825Z,4.77
2023-03-18T00:24:49.127Z,4.80
2023-03-18T00:27:17.339Z,4.90
2023-03-18T00:29:46.022Z,3.20
2023-03-18T00:32:14.682Z,6.30
2023-03-18T00:34:42.934Z,4.07
2023-03-18T00:37:18.861Z,3.10
2023-03-18T00:39:47.168Z,9.37
2023-03-18T00:42:15.855Z,4.53
2023-03-18T00:44:45.131Z,3.77
2023-03-18T00:47:13.221Z,3.83
2023-03-18T00:49:41.795Z,3.30
2023-03-18T00:52:09.967Z,4.63
2023-03-18T00:54:39.577Z,5.43
2023-03-18T00:57:08.047Z,3.50
2023-03-18T00:59:36.138Z,3.53
2023-03-18T01:02:04.196Z,4.70
2023-03-18T01:04:32.637Z,6.07
2023-03-18T01:07:01.300Z,10.10
2023-03-18T01:09:29.277Z,12.20
2023-03-18T01:11:58.773Z,8.20
2023-03-18T01:14:26.817Z,9.00
2023-03-18T01:16:54.838Z,6.10
2023-03-18T01:19:23.814Z,11.50
2023-03-18T01:21:51.828Z,8.60
2023-03-18T01:24:19.942Z,5.87
2023-03-18T01:26:48.154Z,8.87
2023-03-18T01:29:17.780Z,7.67
2023-03-18T01:31:46.669Z,9.27
2023-03-18T01:34:16.468Z,9.77
2023-03-18T01:36:44.992Z,7.20
2023-03-18T01:39:13.024Z,8.87
2023-03-18T01:41:41.471Z,8.77
2023-03-18T01:44:14.552Z,11.33
2023-03-18T01:46:45.919Z,7.23
2023-03-18T01:49:17.663Z,10.03
2023-03-18T01:51:50.355Z,7.10
2023-03-18T01:54:19.977Z,6.13
2023-03-18T01:56:49.453Z,6.50
2023-03-18T01:59:17.781Z,5.80
2023-03-18T02:01:53.134Z,6.97
2023-03-18T02:04:23.913Z,7.33
2023-03-18T02:06:51.912Z,5.93
2023-03-18T02:09:20.250Z,7.50
2023-03-18T02:11:50.805Z,6.57
2023-03-18T02:14:21.661Z,4.77
2023-03-18T02:17:01.167Z,4.50
2023-03-18T02:19:43.657Z,5.20
2023-03-18T02:22:22.113Z,7.70
2023-03-18T02:25:01.405Z,12.13
2023-03-18T02:27:33.832Z,8.27
2023-03-18T02:30:06.456Z,7.60
2023-03-18T02:32:35.892Z,8.40
2023-03-18T02:35:08.545Z,4.10
2023-03-18T02:37:36.548Z,5.60
2023-03-18T02:40:16.068Z,7.07
2023-03-18T02:42:45.974Z,5.90
2023-03-18T02:45:31.768Z,5.97
2023-03-18T02:48:02.808Z,4.70
2023-03-18T02:50:31.099Z,5.87
2023-03-18T02:53:01.011Z,4.27
2023-03-18T02:55:29.091Z,4.67
2023-03-18T02:57:58.378Z,2.83
2023-03-18T03:00:26.516Z,3.53
2023-03-18T03:02:54.793Z,4.00
2023-03-18T03:05:22.959Z,4.80
2023-03-18T03:07:51.783Z,6.23
2023-03-18T03:10:20.070Z,5.53
2023-03-18T03:12:48.217Z,8.30
2023-03-18T03:15:17.563Z,5.77
2023-03-18T03:17:45.518Z,10.97
2023-03-18T03:20:13.995Z,5.83
2023-03-18T03:22:42.604Z,5.10
2023-03-18T03:25:11.580Z,5.67
2023-03-18T03:27:39.665Z,4.17
2023-03-18T03:30:11.369Z,5.93
2023-03-18T03:32:40.968Z,8.17
2023-03-18T03:35:13.143Z,6.40
2023-03-18T03:37:41.221Z,6.70
2023-03-18T03:40:10.401Z,7.80
2023-03-18T03:42:38.502Z,6.90
2023-03-18T03:45:07.630Z,7.70
2023-03-18T03:47:36.246Z,6.70
2023-03-18T03:50:07.072Z,7.97
2023-03-18T03:52:35.134Z,6.57
2023-03-18T03:55:04.221Z,4.67
2023-03-18T03:57:32.301Z,4.93
2023-03-18T04:00:00.474Z,4.50
2023-03-18T04:02:28.821Z,7.50
2023-03-18T04:04:56.946Z,5.40
2023-03-18T04:07:26.242Z,4.23
2023-03-18T04:09:56.036Z,4.03
2023-03-18T04:12:24.342Z,4.00
2023-03-18T04:14:52.483Z,6.50
2023-03-18T04:17:20.331Z,4.93
2023-03-18T04:19:49.601Z,4.40
2023-03-18T04:22:18.285Z,6.63
2023-03-18T04:24:48.244Z,5.87
2023-03-18T04:27:16.705Z,4.73
2023-03-18T04:29:44.975Z,4.70
2023-03-18T04:32:12.974Z,7.90
2023-03-18T04:34:40.855Z,9.07
2023-03-18T04:37:10.128Z,7.60
2023-03-18T04:39:38.200Z,6.43
2023-03-18T04:42:08.020Z,8.40
2023-03-18T04:44:36.025Z,6.80
2023-03-18T04:47:03.986Z,5.80
2023-03-18T04:49:32.027Z,5.10
2023-03-18T04:51:59.954Z,4.83
2023-03-18T04:54:28.342Z,4.77
2023-03-18T04:56:56.485Z,6.83
2023-03-18T04:59:26.382Z,9.10
2023-03-18T05:01:54.356Z,4.57
2023-03-18T05:04:22.271Z,6.90
2023-03-18T05:06:50.625Z,8.63
2023-03-18T05:09:19.518Z,5.90
2023-03-18T05:11:47.742Z,12.80
2023-03-18T05:14:15.751Z,5.57
2023-03-18T05:16:45.489Z,6.57
2023-03-18T05:19:14.010Z,4.60
2023-03-18T05:21:42.304Z,4.17
2023-03-18T05:24:10.829Z,5.07
2023-03-18T05:26:39.136Z,7.80
2023-03-18T05:29:07.059Z,4.50
2023-03-18T05:31:35.223Z,6.50
2023-03-18T05:34:04.540Z,8.37
2023-03-18T05:36:33.074Z,5.20
2023-03-18T05:39:01.070Z,7.00
2023-03-18T05:41:28.960Z,8.60
2023-03-18T05:43:57.312Z,9.70
2023-03-18T05:46:25.218Z,8.23
2023-03-18T05:48:53.207Z,8.33
2023-03-18T05:51:22.629Z,7.47
2023-03-18T05:53:50.913Z,5.50
2023-03-18T05:56:19.043Z,4.33
2023-03-18T05:58:46.933Z,4.40
2023-03-18T06:01:15.152Z,5.10
2023-03-18T06:03:43.125Z,7.00
2023-03-18T06:06:11.440Z,4.97
2023-03-18T06:08:43.828Z,5.80
2023-03-18T06:11:12.286Z,9.57
2023-03-18T06:13:41.435Z,5.97
2023-03-18T06:16:09.806Z,4.27
2023-03-18T06:18:43.808Z,6.53
2023-03-18T06:21:12.098Z,5.13
2023-03-18T06:23:41.479Z,6.43
2023-03-18T06:26:10.056Z,5.97
2023-03-18T06:28:38.165Z,5.70
2023-03-18T06:31:06.373Z,5.53
2023-03-18T06:33:34.624Z,5.37
2023-03-18T06:36:03.015Z,5.03
2023-03-18T06:38:31.600Z,6.20
2023-03-18T06:41:02.039Z,5.83
2023-03-18T06:43:30.054Z,4.97
2023-03-18T06:45:59.655Z,6.23
2023-03-18T06:48:28.598Z,8.60
2023-03-18T06:50:56.684Z,7.63
2023-03-18T06:53:25.420Z,7.90
2023-03-18T06:55:54.071Z,6.00
2023-03-18T06:58:24.800Z,5.00
2023-03-18T07:00:53.210Z,7.07
2023-03-18T07:03:21.708Z,4.30
2023-03-18T07:05:51.173Z,5.47
2023-03-18T07:08:19.282Z,3.37
2023-03-18T07:10:47.314Z,5.00
2023-03-18T07:13:15.538Z,6.97
2023-03-18T07:15:45.564Z,3.67
2023-03-18T07:18:14.319Z,7.67
2023-03-18T07:20:43.321Z,4.80
2023-03-18T07:23:11.696Z,6.83
2023-03-18T07:25:39.736Z,6.20
2023-03-18T07:28:07.648Z,6.70
2023-03-18T07:30:36.699Z,9.77
2023-03-18T07:33:06.702Z,7.33
2023-03-18T07:35:35.309Z,7.87
2023-03-18T07:38:03.753Z,7.13
2023-03-18T07:40:31.790Z,6.00
2023-03-18T07:43:00.766Z,14.60
2023-03-18T07:45:29.241Z,11.73
2023-03-18T07:47:58.244Z,12.00
2023-03-18T07:50:27.950Z,11.73
2023-03-18T07:52:55.925Z,10.97
2023-03-18T07:55:24.426Z,9.83
2023-03-18T07:57:52.585Z,7.93
2023-03-18T08:00:22.414Z,19.27
2023-03-18T08:02:50.379Z,7.00
2023-03-18T08:05:19.309Z,8.10
2023-03-18T08:07:49.484Z,6.30
2023-03-18T08:10:17.713Z,6.73
2023-03-18T08:12:52.971Z,9.27
2023-03-18T08:15:22.257Z,12.47
2023-03-18T08:17:50.704Z,7.53
2023-03-18T08:20:18.932Z,8.60
2023-03-18T08:22:48.551Z,7.87
2023-03-18T08:25:16.957Z,11.90
2023-03-18T08:27:44.960Z,13.57
2023-03-18T08:30:15.127Z,11.13
2023-03-18T08:32:43.754Z,13.50
2023-03-18T08:35:13.352Z,12.07
2023-03-18T08:37:41.464Z,8.43
2023-03-18T08:40:13.425Z,9.63
2023-03-18T08:42:41.317Z,9.50
2023-03-18T08:45:11.104Z,6.67
2023-03-18T08:47:41.272Z,6.87
2023-03-18T08:50:11.797Z,9.73
2023-03-18T08:52:42.133Z,9.10
2023-03-18T08:55:13.193Z,7.07
2023-03-18T08:57:42.838Z,8.20
2023-03-18T09:00:12.860Z,7.83
2023-03-18T09:02:41.760Z,5.60
2023-03-18T09:05:10.134Z,5.75
2023-03-18T09:07:38.209Z,6.57
2023-03-18T09:10:07.089Z,5.70
2023-03-18T09:12:36.995Z,5.72
2023-03-18T09:15:06.297Z,4.97
2023-03-18T09:17:50.956Z,8.30
2023-03-18T09:21:15.139Z,8.57
2023-03-18T09:23:43.282Z,6.35
2023-03-18T09:26:11.822Z,7.35
2023-03-18T09:28:41.238Z,5.25
2023-03-18T09:31:09.462Z,8.23
2023-03-18T09:33:37.833Z,6.53
2023-03-18T09:36:06.437Z,5.55
2023-03-18T09:38:35.389Z,11.55
2023-03-18T09:41:09.138Z,7.80
2023-03-18T09:43:58.596Z,4.57
2023-03-18T09:46:34.649Z,4.68
2023-03-18T09:49:31.614Z,7.05
2023-03-18T09:52:09.671Z,5.63
2023-03-18T09:54:42.156Z,8.05
2023-03-18T09:57:17.274Z,4.18
2023-03-18T09:59:49.084Z,5.45
2023-03-18T10:02:23.377Z,6.57
2023-03-18T10:04:56.261Z,6.97
2023-03-18T10:07:28.575Z,7.45
2023-03-18T10:10:00.194Z,6.07
2023-03-18T10:12:33.201Z,10.45
2023-03-18T10:15:17.790Z,6.95
2023-03-18T10:17:52.458Z,5.10
2023-03-18T10:20:26.816Z,6.72
2023-03-18T10:23:12.817Z,5.45
2023-03-18T10:25:49.056Z,6.22
2023-03-18T10:28:42.596Z,5.43
2023-03-18T10:31:29.689Z,5.22
2023-03-18T10:34:00.409Z,3.10
2023-03-18T10:36:36.245Z,5.93
2023-03-18T10:39:04.805Z,4.72
2023-03-18T10:41:34.783Z,5.20
2023-03-18T10:44:04.919Z,3.50
2023-03-18T10:46:37.628Z,4.82
2023-03-18T10:49:11.136Z,2.70
2023-03-18T10:51:46.582Z,4.10
2023-03-18T10:54:20.942Z,5.57
2023-03-18T10:56:48.948Z,2.20
2023-03-18T10:59:19.300Z,5.97
2023-03-18T11:01:53.332Z,3.67
2023-03-18T11:04:23.964Z,5.10
2023-03-18T11:06:57.759Z,6.97
2023-03-18T11:09:32.206Z,4.43
2023-03-18T11:12:05.348Z,2.78
2023-03-18T11:14:34.758Z,3.95
2023-03-18T11:17:06.873Z,3.70
2023-03-18T11:19:39.963Z,5.40
2023-03-18T11:22:19.522Z,4.45
2023-03-18T11:24:48.961Z,3.10
2023-03-18T11:27:40.211Z,3.78
2023-03-18T11:30:33.556Z,2.95
2023-03-18T11:33:08.133Z,6.50
2023-03-18T11:35:41.980Z,6.13
2023-03-18T11:38:16.937Z,4.57
2023-03-18T11:40:46.063Z,2.55
2023-03-18T11:43:20.272Z,4.50
2023-03-18T11:45:53.306Z,4.28
2023-03-18T11:48:31.507Z,4.07
2023-03-18T11:51:13.382Z,5.57
2023-03-18T11:53:54.966Z,7.05
2023-03-18T11:56:28.475Z,5.90
2023-03-18T11:59:07.127Z,3.22
2023-03-18T12:01:45.514Z,2.58
2023-03-18T12:04:57.678Z,3.80
2023-03-18T12:07:41.675Z,7.80
2023-03-18T12:10:20.886Z,6.60
2023-03-18T12:12:59.667Z,4.63
2023-03-18T12:15:40.010Z,6.53
2023-03-18T12:18:22.728Z,7.27
2023-03-18T12:20:53.768Z,4.27
2023-03-18T12:23:51.419Z,6.03
2023-03-18T12:26:27.711Z,2.47
2023-03-18T12:29:26.647Z,4.03
2023-03-18T12:32:09.030Z,3.50
2023-03-18T12:34:58.506Z,6.70
2023-03-18T12:37:40.004Z,6.43
2023-03-18T12:40:45.235Z,4.43
2023-03-18T12:43:44.738Z,4.30
2023-03-18T12:46:23.301Z,5.97
2023-03-18T12:48:56.171Z,6.30
2023-03-18T12:51:32.149Z,4.57
2023-03-18T12:54:12.281Z,5.30
2023-03-18T12:56:45.647Z,15.07
2023-03-18T12:59:19.012Z,5.77
2023-03-18T13:02:00.408Z,5.93
2023-03-18T13:04:36.061Z,11.10
2023-03-18T13:07:18.370Z,7.13
2023-03-18T13:09:54.253Z,2.10
2023-03-18T13:12:26.007Z,6.27
2023-03-18T13:14:59.745Z,5.70
2023-03-18T13:17:33.432Z,4.20
2023-03-18T13:20:03.813Z,3.83
2023-03-18T13:23:06.321Z,3.17
2023-03-18T13:25:42.657Z,4.33
2023-03-18T13:28:34.510Z,3.70
2023-03-18T13:31:11.871Z,2.53
2023-03-18T13:34:10.719Z,6.43
2023-03-18T13:37:09.124Z,2.63
2023-03-18T13:40:00.470Z,2.53
2023-03-18T13:42:31.983Z,2.47
2023-03-18T13:45:13.063Z,2.67
2023-03-18T13:47:44.413Z,3.00
2023-03-18T13:50:32.471Z,4.77
2023-03-18T13:53:02.836Z,4.70
2023-03-18T13:55:34.854Z,5.00
2023-03-18T13:58:21.403Z,3.40
2023-03-18T14:01:17.789Z,3.80
2023-03-18T14:04:22.058Z,5.10
2023-03-18T14:06:56.623Z,4.67
2023-03-18T14:09:36.840Z,3.60
2023-03-18T14:12:42.982Z,4.33
2023-03-18T14:15:44.452Z,3.47
2023-03-18T14:18:27.846Z,5.77
2023-03-18T14:21:02.759Z,5.17
2023-03-18T14:23:39.145Z,6.77
2023-03-18T14:26:19.392Z,6.67
2023-03-18T14:28:56.635Z,4.60
2023-03-18T14:31:59.282Z,4.83
2023-03-18T14:34:31.219Z,4.40
2023-03-18T14:37:29.531Z,6.00
2023-03-18T14:40:08.922Z,6.20
2023-03-18T14:42:54.234Z,5.97
2023-03-18T14:45:29.347Z,2.50
2023-03-18T14:48:01.790Z,3.37
2023-03-18T14:50:49.846Z,6.90
2023-03-18T14:53:22.729Z,3.97
2023-03-18T14:55:55.139Z,6.37
2023-03-18T14:58:26.044Z,2.40
2023-03-18T15:00:56.503Z,4.20
2023-03-18T15:03:27.373Z,4.60
2023-03-18T15:05:58.514Z,7.07
2023-03-18T15:08:44.640Z,2.70
2023-03-18T15:11:16.834Z,1.50
2023-03-18T15:13:46.558Z,2.00
2023-03-18T15:16:18.618Z,4.73
2023-03-18T15:18:54.959Z,3.83
2023-03-18T15:21:27.618Z,4.23
2023-03-18T15:23:58.352Z,9.27
2023-03-18T15:26:31.097Z,4.30
2023-03-18T15:29:01.510Z,3.87
2023-03-18T15:31:31.888Z,4.17
2023-03-18T15:34:15.376Z,5.77
2023-03-18T15:36:44.936Z,2.90
2023-03-18T15:39:29.763Z,1.60
2023-03-18T15:41:58.733Z,1.90
2023-03-18T15:44:30.144Z,3.47
2023-03-18T15:47:07.540Z,7.50
2023-03-18T15:49:50.813Z,6.63
2023-03-18T15:52:18.972Z,4.00
2023-03-18T15:54:49.609Z,3.63
2023-03-18T15:57:27.167Z,4.43
2023-03-18T15:59:56.022Z,3.40
2023-03-18T16:02:24.460Z,3.60
2023-03-18T16:05:06.108Z,4.07
2023-03-18T16:07:34.328Z,3.47
2023-03-18T16:10:02.283Z,4.10
2023-03-18T16:12:32.388Z,2.10
2023-03-18T16:15:03.930Z,2.30
2023-03-18T16:17:33.271Z,4.23
2023-03-18T16:20:06.510Z,2.80
2023-03-18T16:22:35.531Z,4.90
2023-03-18T16:25:03.456Z,3.40
2023-03-18T16:27:38.516Z,3.03
2023-03-18T16:30:08.563Z,2.17
2023-03-18T16:32:37.347Z,4.70
2023-03-18T16:35:10.597Z,2.40
2023-03-18T16:37:38.712Z,3.97
2023-03-18T16:40:19.342Z,2.83
2023-03-18T16:42:49.469Z,6.67
2023-03-18T16:45:19.914Z,4.63
2023-03-18T16:47:50.554Z,4.00
2023-03-18T16:50:22.079Z,9.17
2023-03-18T16:52:51.281Z,9.53
2023-03-18T16:55:20.532Z,2.97
2023-03-18T16:57:51.560Z,7.03
2023-03-18T17:00:22.764Z,4.83
2023-03-18T17:02:53.719Z,6.60
2023-03-18T17:05:24.301Z,2.77
2023-03-18T17:07:52.935Z,5.13
2023-03-18T17:10:23.522Z,3.83
2023-03-18T17:12:55.958Z,3.23
2023-03-18T17:15:28.866Z,4.57
2023-03-18T17:17:58.704Z,4.70
2023-03-18T17:20:30.277Z,5.03
2023-03-18T17:22:58.292Z,2.33
2023-03-18T17:25:28.464Z,3.67
2023-03-18T17:27:58.730Z,5.30
2023-03-18T17:30:32.661Z,4.90
2023-03-18T17:33:01.298Z,3.30
2023-03-18T17:35:31.599Z,5.27
2023-03-18T17:37:59.918Z,5.40
2023-03-18T17:40:32.062Z,9.23
2023-03-18T17:43:01.255Z,4.47
2023-03-18T17:45:32.465Z,8.37
2023-03-18T17:48:16.089Z,6.00
2023-03-18T17:50:47.016Z,5.07
2023-03-18T17:53:26.121Z,6.23
2023-03-18T17:55:55.146Z,5.00
2023-03-18T17:58:26.021Z,8.83
2023-03-18T18:00:55.530Z,13.23
2023-03-18T18:03:26.688Z,15.30
2023-03-18T18:05:58.325Z,16.60
2023-03-18T18:08:27.093Z,15.60
2023-03-18T18:10:59.947Z,8.40
2023-03-18T18:13:28.088Z,10.20
2023-03-18T18:15:56.172Z,10.27
2023-03-18T18:18:25.495Z,11.80
2023-03-18T18:20:58.174Z,9.10
2023-03-18T18:23:29.121Z,6.80
2023-03-18T18:26:02.291Z,7.73
2023-03-18T18:28:34.766Z,10.10
2023-03-18T18:31:03.393Z,7.50
2023-03-18T18:33:32.758Z,4.97
2023-03-18T18:36:02.655Z,5.73
2023-03-18T18:38:31.272Z,6.40
2023-03-18T18:41:00.201Z,7.40
2023-03-18T18:43:28.781Z,6.67
2023-03-18T18:46:00.074Z,8.30
2023-03-18T18:48:30.920Z,6.50
2023-03-18T18:50:59.695Z,8.50
2023-03-18T18:53:31.078Z,8.33
2023-03-18T18:56:02.496Z,9.43
2023-03-18T18:58:32.650Z,10.07
2023-03-18T19:01:02.674Z,7.03
2023-03-18T19:03:32.163Z,8.90
2023-03-18T19:06:02.663Z,12.13
2023-03-18T19:08:34.835Z,7.73
2023-03-18T19:11:05.850Z,10.13
2023-03-18T19:13:35.410Z,10.73
2023-03-18T19:16:06.161Z,6.47
2023-03-18T19:18:38.683Z,6.70
2023-03-18T19:21:07.080Z,13.93
2023-03-18T19:23:37.042Z,6.40
2023-03-18T19:26:07.343Z,8.63
2023-03-18T19:28:58.928Z,9.10
2023-03-18T19:31:30.488Z,4.90
2023-03-18T19:34:00.447Z,6.13
2023-03-18T19:36:30.287Z,6.70
2023-03-18T19:39:01.391Z,9.03
2023-03-18T19:41:29.673Z,9.20
2023-03-18T19:44:01.854Z,11.70
2023-03-18T19:46:36.027Z,9.20
2023-03-18T19:49:04.217Z,7.33
2023-03-18T19:51:32.658Z,10.87
2023-03-18T19:54:02.902Z,10.33
2023-03-18T19:56:31.385Z,11.60
2023-03-18T19:59:00.039Z,14.37
2023-03-18T20:01:29.301Z,11.63
2023-03-18T20:03:59.262Z,10.43
2023-03-18T20:06:27.706Z,7.73
2023-03-18T20:08:55.686Z,13.90
2023-03-18T20:11:25.356Z,11.07
2023-03-18T20:13:54.621Z,10.20
2023-03-18T20:16:22.902Z,9.87
2023-03-18T20:18:51.613Z,11.87
2023-03-18T20:21:24.549Z,9.30
2023-03-18T20:23:53.944Z,10.80
2023-03-18T20:26:23.951Z,10.17
2023-03-18T20:28:55.523Z,10.43
2023-03-18T20:31:23.750Z,10.73
2023-03-18T20:33:52.044Z,10.73
2023-03-18T20:36:20.778Z,10.97
2023-03-18T20:38:51.320Z,13.90
2023-03-18T20:41:21.695Z,14.83
2023-03-18T20:43:52.541Z,9.40
2023-03-18T20:46:25.360Z,11.73
2023-03-18T20:48:54.062Z,11.13
2023-03-18T20:51:28.204Z,12.87
2023-03-18T20:53:56.279Z,10.47
2023-03-18T20:56:25.105Z,13.20
2023-03-18T20:58:56.239Z,13.70
2023-03-18T21:01:24.991Z,14.00
2023-03-18T21:03:53.189Z,11.17
2023-03-18T21:06:21.857Z,19.43
2023-03-18T21:08:49.934Z,18.80
2023-03-18T21:11:22.788Z,8.93
2023-03-18T21:13:51.286Z,13.87
2023-03-18T21:16:21.484Z,14.47
2023-03-18T21:18:50.074Z,12.20
2023-03-18T21:21:25.124Z,12.23
2023-03-18T21:23:54.643Z,12.50
2023-03-18T21:26:25.631Z,18.73
2023-03-18T21:28:56.801Z,16.63
2023-03-18T21:31:31.131Z,11.80
2023-03-18T21:33:59.010Z,13.07
2023-03-18T21:36:27.081Z,15.33
2023-03-18T21:38:55.133Z,15.80
2023-03-18T21:41:25.368Z,12.23
2023-03-18T21:43:53.259Z,13.40
2023-03-18T21:46:27.185Z,11.33
2023-03-18T21:48:55.958Z,14.37
2023-03-18T21:51:38.169Z,20.17
2023-03-18T21:54:18.495Z,11.30
2023-03-18T21:56:46.648Z,14.60
2023-03-18T21:59:14.836Z,14.97
2023-03-18T22:01:44.217Z,12.10
2023-03-18T22:04:13.069Z,13.47
2023-03-18T22:06:41.487Z,15.97
2023-03-18T22:09:10.846Z,23.30
2023-03-18T22:11:38.936Z,15.80
2023-03-18T22:14:06.988Z,16.40
2023-03-18T22:16:34.893Z,16.20
2023-03-18T22:19:04.370Z,19.60
2023-03-18T22:21:32.379Z,17.17
2023-03-18T22:24:00.655Z,16.60
2023-03-18T22:26:31.602Z,16.90
2023-03-18T22:28:59.532Z,20.50
2023-03-18T22:31:28.650Z,11.57
2023-03-18T22:33:58.522Z,14.73
2023-03-18T22:36:29.611Z,12.27
2023-03-18T22:38:57.639Z,12.60
2023-03-18T22:41:29.276Z,14.47
2023-03-18T22:43:57.909Z,12.03
2023-03-18T22:46:28.152Z,11.90
2023-03-18T22:48:56.176Z,11.50
2023-03-18T22:51:28.650Z,12.67
2023-03-18T22:53:57.026Z,14.90
2023-03-18T22:56:25.606Z,13.00
2023-03-18T22:58:54.553Z,16.30
2023-03-18T23:01:27.540Z,11.63
2023-03-18T23:03:55.851Z,12.63
2023-03-18T23:06:24.878Z,13.00
2023-03-18T23:08:54.234Z,12.00
2023-03-18T23:11:22.158Z,13.50
2023-03-18T23:13:52.141Z,20.53
2023-03-18T23:16:22.091Z,13.83
2023-03-18T23:18:51.135Z,12.23
2023-03-18T23:21:21.508Z,12.10
2023-03-18T23:23:50.604Z,9.07
2023-03-18T23:26:20.463Z,14.03
2023-03-18T23:28:48.978Z,9.63
2023-03-18T23:31:17.574Z,9.57
2023-03-18T23:33:47.235Z,9.50
2023-03-18T23:36:15.800Z,11.07
2023-03-18T23:38:44.107Z,9.90
2023-03-18T23:41:12.414Z,9.07
2023-03-18T23:43:41.844Z,8.40
2023-03-18T23:46:09.839Z,10.93
2023-03-18T23:48:37.793Z,7.67
2023-03-18T23:51:05.809Z,16.73
2023-03-18T23:53:33.723Z,8.73
2023-03-18T23:56:01.656Z,9.97
2023-03-18T23:58:29.640Z,11.07
